Station: Adelaide (West Terrace / Ngayirdapira)

  Atmospheric Gas Attenuation - ITU Rec 676-11   --------------- db/100km ---------------
Date Time Temp RH % AH g/m3 Dew Point Wind Direction Speed kph Gust kph Barometer mB Rainfall Since 9am 24GHz 47GHz 76GHz 122GHz 134GHz 241GHz
24 18:40 36.2 12 5.05 2.3 28 35 1000.9 0 11.4 15.9 20.0 52.1 41.2 140.2
24 18:30 38.1 10 4.64 1.2 19 30 1000.7 0 10.5 15.2 18.6 48.2 36.9 125.2
24 18:20 39.4 10 4.96 2.2 15 20 1000.3 0 11.1 15.3 19.1 49.6 39.0 132.6
24 18:10 38.7 11 5.26 3 19 22 1000.3 0 11.7 15.7 20.0 52.0 41.8 142.4
24 18:00 39 12 5.83 4.4 15 22 1000.3 0 12.9 16.3 21.4 55.7 46.5 158.9
24 17:50 39.1 13 6.35 5.7 17 19 1000.4 0 13.9 16.8 22.7 59.3 50.9 174.5
24 17:40 39.1 12 5.86 4.5 24 30 1000.3 0 12.9 16.3 21.4 55.9 46.7 159.7
24 17:30 41.5 7 3.85 -1.2 20 30 1000.2 0 8.8 13.9 16.0 41.4 29.3 98.6
24 17:20 41.8 8 4.47 0.8 19 24 1000.3 0 10.0 14.5 17.4 45.1 34.0 115.3
24 17:10 41.1 8 4.32 0.3 22 28 1000.4 0 9.8 14.4 17.2 44.5 33.1 112.0
24 17:00 41.4 8 4.38 0.5 19 30 1000.5 0 9.9 14.4 17.3 44.8 33.5 113.3
24 16:50 41.3 8 4.36 0.5 20 26 1000.8 0 9.8 14.4 17.3 44.7 33.4 112.9
24 16:40 41.1 9 4.86 2 24 30 1000.8 0 10.8 15.0 18.5 48.0 37.4 127.3
24 16:30 40.9 9 4.81 1.8 24 33 1001 0 10.8 15.0 18.4 47.8 37.1 126.2
24 16:20 41.4 9 4.93 2.2 22 26 1001.1 0 11.0 15.0 18.6 48.3 37.9 128.9
24 16:10 41.2 9 4.88 2 26 35 1001.2 0 10.9 15.0 18.5 48.1 37.6 127.7
24 16:00 41.2 9 4.88 2 24 35 1001.4 0 10.9 15.0 18.5 48.1 37.6 127.8
24 15:50 41.2 8 4.34 0.4 22 28 1001.4 0 9.8 14.5 17.2 44.7 33.3 112.6
24 15:40 41.4 8 4.38 0.5 20 22 1001.6 0 9.9 14.5 17.3 44.8 33.5 113.5
24 15:30 41 8 4.3 0.3 19 28 1001.7 0 9.7 14.4 17.2 44.5 33.0 111.7
24 15:20 41.1 9 4.86 2 15 20 1001.8 0 10.8 15.0 18.5 48.1 37.5 127.4
24 15:10 41.2 9 4.88 2 20 28 1002 0 10.9 15.0 18.6 48.2 37.6 127.8
24 15:00 41 9 4.83 1.9 24 35 1002.1 0 10.8 15.0 18.5 48.0 37.3 126.7
24 14:50 40.8 9 4.78 1.7 20 24 1002.2 0 10.7 15.0 18.4 47.8 37.0 125.6
24 14:40 40.5 10 5.24 3 24 32 1002.3 0 11.6 15.5 19.6 51.0 40.8 139.2
24 14:30 41.1 10 5.4 3.4 24 35 1002.5 0 11.9 15.6 19.9 51.7 41.9 143.0
24 14:20 41.7 9 5 2.4 19 22 1002.6 0 11.1 15.1 18.8 48.7 38.4 130.6
24 14:10 41.2 10 5.42 3.5 19 32 1002.7 0 12.0 15.6 19.9 51.8 42.0 143.4
24 14:00 40.6 10 5.26 3.1 26 39 1002.9 0 11.7 15.5 19.6 51.1 41.0 139.7
24 13:50 41.6 9 4.98 2.3 20 26 1003 0 11.1 15.1 18.7 48.7 38.3 130.2
24 13:40 41.4 9 4.93 2.2 26 33 1003.1 0 11.0 15.0 18.7 48.5 38.0 129.1
24 13:30 42.2 9 5.13 2.8 24 37 1003.2 0 11.4 15.1 19.0 49.3 39.2 133.6
24 13:20 41.4 9 4.93 2.2 24 32 1003.4 0 11.0 15.1 18.7 48.5 38.0 129.1
24 13:10 40.7 9 4.76 1.7 26 32 1003.5 0 10.7 15.0 18.4 47.8 36.9 125.3
24 13:00 41 9 4.83 1.9 24 39 1003.6 0 10.8 15.0 18.5 48.1 37.3 126.9
24 12:50 41.1 8 4.32 0.3 26 32 1003.7 0 9.8 14.5 17.3 44.7 33.2 112.4
24 12:40 41.3 8 4.36 0.5 22 30 1003.9 0 9.8 14.5 17.3 44.9 33.5 113.3
24 12:30 41.5 7 3.85 -1.2 26 39 1004 0 8.8 14.0 16.1 41.6 29.4 99.0
24 12:20 41 7 3.76 -1.6 28 33 1004 0 8.6 14.0 16.0 41.2 28.9 97.1
24 12:10 41.4 7 3.83 -1.3 26 33 1004.1 0 8.8 14.0 16.1 41.5 29.3 98.5
24 12:00 41.4 7 3.83 -1.3 13 22 1004.2 0 8.8 14.0 16.1 41.5 29.3 98.6
24 11:50 39.9 8 4.07 -0.5 13 15 1004.2 0 9.3 14.4 16.9 43.7 31.7 106.9
24 11:40 39.8 7 3.54 -2.4 9 11 1004.3 0 8.2 13.9 15.7 40.4 27.6 92.3
24 11:30 39.4 9 4.46 0.7 11 17 1004.4 0 10.1 14.9 18.0 46.5 35.0 118.6
24 11:20 39 9 4.37 0.4 9 11 1004.4 0 9.9 14.9 17.8 46.1 34.5 116.6
24 11:10 38.3 8 3.75 -1.7 13 17 1004.5 0 8.7 14.4 16.4 42.5 29.7 99.8
24 11:00 37.4 9 4.03 -0.8 13 20 1004.6 0 9.3 14.8 17.3 44.7 32.3 108.8
24 10:50 37.2 10 4.43 0.5 13 17 1004.6 0 10.1 15.2 18.3 47.5 35.7 120.7
24 10:40 36.8 9 3.91 -1.2 9 13 1004.8 0 9.0 14.7 17.1 44.3 31.6 106.1
24 10:30 36.4 9 3.83 -1.5 17 26 1004.8 0 8.9 14.7 17.0 43.9 31.0 104.3
24 10:20 36.1 9 3.77 -1.7 17 19 1004.9 0 8.8 14.7 16.9 43.7 30.7 102.9
24 10:10 35.8 9 3.71 -2 19 24 1004.9 0 8.7 14.7 16.8 43.4 30.3 101.5
24 10:00 35.6 10 4.08 -0.7 15 26 1005 0 9.4 15.1 17.8 46.0 33.4 112.6
24 09:50 35.5 9 3.65 -2.2 15 20 1005.1 0 8.5 14.7 16.7 43.2 29.9 100.1
24 09:40 35.3 9 3.62 -2.3 17 20 1005.1 0 8.5 14.7 16.7 43.1 29.7 99.4
24 09:30 35.2 9 3.6 -2.4 15 22 1005.2 0 8.5 14.7 16.7 43.0 29.6 99.0
24 09:20 34.8 10 3.91 -1.3 11 17 1005.2 0 9.1 15.1 17.5 45.3 32.3 108.6
24 09:10 34.4 12 4.6 0.9 11 13 1005.3 0 10.5 15.8 19.4 50.3 38.3 129.9
24 09:00 34.1 13 4.91 1.8 15 24 1005.3 0 11.1 16.2 20.3 52.6 41.2 139.9
24 08:50 33.6 14 5.15 2.4 15 19 1005.3 0 11.6 16.6 21.0 54.7 43.6 148.2
24 08:40 33.1 14 5.01 2 15 17 1005.4 0 11.4 16.5 20.8 54.0 42.6 144.6
24 08:30 32.9 14 4.96 1.9 17 26 1005.4 0 11.3 16.5 20.7 53.7 42.2 143.4
24 08:20 32.6 17 5.93 4.4 11 15 1005.4 0 13.3 17.6 23.4 61.1 51.2 175.1
24 08:10 32 16 5.4 3.1 15 24 1005.4 0 12.2 17.1 22.1 57.6 46.7 159.0
24 08:00 31.8 17 5.68 3.8 17 26 1005.3 0 12.8 17.5 23.0 59.8 49.4 168.5
24 07:50 31.9 15 5.04 2.1 15 20 1005.2 0 11.5 16.7 21.1 54.9 43.4 147.6
24 07:40 31.4 16 5.23 2.6 15 20 1005.1 0 11.9 17.0 21.8 56.7 45.4 154.6
24 07:30 31.4 16 5.23 2.6 13 20 1005 0 11.9 17.0 21.8 56.7 45.4 154.6
24 07:20 31.5 16 5.26 2.7 15 19 1004.9 0 11.9 17.0 21.8 56.8 45.6 155.3
24 07:10 31.5 16 5.26 2.7 13 17 1004.8 0 11.9 17.0 21.8 56.8 45.6 155.3
24 07:00 31.9 14 4.7 1.1 15 26 1004.7 0 10.8 16.3 20.2 52.4 40.4 136.7
24 06:50 31.8 15 5.01 2 17 20 1004.6 0 11.4 16.7 21.1 54.7 43.2 146.7
24 06:40 31.7 15 4.99 1.9 15 20 1004.6 0 11.4 16.7 21.0 54.7 43.1 146.3
24 06:30 31.7 15 4.99 1.9 15 28 1004.6 0 11.4 16.7 21.0 54.7 43.1 146.3
24 06:20 31.6 15 4.96 1.8 15 19 1004.5 0 11.3 16.7 21.0 54.5 42.8 145.4
24 06:10 31.7 15 4.99 1.9 13 15 1004.5 0 11.4 16.7 21.0 54.7 43.1 146.2
24 06:00 31.4 16 5.23 2.6 17 22 1004.5 0 11.9 17.0 21.8 56.6 45.4 154.5
24 05:50 31.6 16 5.29 2.7 13 17 1004.4 0 12.0 17.1 21.9 56.9 45.8 156.1
24 05:40 31.5 16 5.26 2.7 17 22 1004.4 0 11.9 17.0 21.8 56.8 45.6 155.3
24 05:30 31.1 17 5.47 3.2 15 22 1004.4 0 12.4 17.3 22.5 58.6 47.8 162.8
24 05:20 31.7 17 5.65 3.7 13 15 1004.4 0 12.7 17.4 22.9 59.6 49.1 167.6
24 04:50 31.8 17 5.68 3.8 19 20 1004.5 0 12.8 17.5 22.9 59.7 49.3 168.4
24 04:40 31.9 17 5.71 3.8 17 20 1004.4 0 12.8 17.5 23.0 59.9 49.6 169.2
24 04:30 32.1 17 5.77 4 19 33 1004.4 0 13.0 17.5 23.1 60.2 50.0 170.7
24 04:20 32.2 17 5.8 4.1 22 28 1004.4 0 13.0 17.5 23.2 60.3 50.2 171.5
24 04:10 32.1 18 6.11 4.8 20 28 1004.4 0 13.7 17.9 24.1 62.8 53.2 181.9
24 04:00 31.8 18 6.01 4.6 17 30 1004.5 0 13.5 17.8 23.9 62.2 52.4 179.3
24 03:50 32.1 18 6.11 4.8 17 22 1004.5 0 13.7 17.9 24.1 62.8 53.2 182.0
24 03:40 32.1 18 6.11 4.8 17 20 1004.5 0 13.7 17.9 24.1 62.8 53.2 182.0
24 03:30 31.9 18 6.05 4.6 17 28 1004.6 0 13.5 17.9 24.0 62.5 52.7 180.4
24 03:20 31.9 18 6.05 4.6 17 24 1004.6 0 13.5 17.9 24.0 62.5 52.7 180.4
24 03:10 32.1 18 6.11 4.8 17 20 1004.7 0 13.7 17.9 24.1 62.8 53.2 182.0
24 03:00 32 19 6.42 5.5 17 26 1004.8 0 14.3 18.3 25.0 65.2 56.2 192.6
24 02:50 32.1 18 6.11 4.8 15 19 1004.9 0 13.7 17.9 24.1 62.8 53.2 182.0
24 02:40 31.9 18 6.05 4.6 17 22 1005 0 13.5 17.9 24.0 62.5 52.8 180.5
24 02:30 32 19 6.42 5.5 17 24 1005.2 0 14.3 18.3 25.0 65.3 56.2 192.6
24 02:20 31.8 19 6.35 5.3 15 22 1005.2 0 14.2 18.3 24.9 64.9 55.7 190.7
24 02:10 32.2 18 6.14 4.9 17 20 1005.3 0 13.7 17.9 24.1 63.0 53.4 182.9
24 02:00 32 19 6.42 5.5 15 20 1005.4 0 14.3 18.3 25.0 65.3 56.2 192.7
24 01:50 31.6 19 6.28 5.2 13 15 1005.4 0 14.0 18.2 24.7 64.5 55.2 188.9

Last Refresh: 24-Jan-2021 18:55:04

Most of the information presented on this site is sourced from the Bureau of Meteorology.  Copyright in all material sourced from the Bureau of Meteorology resides with the Commonwealth of Australia.